KSCR/SCR METAR and TAF weather

Enter ICAO airport designator
Station Type Date Time Source
KSCR METAR 2019/06/18 12:55 UTC NOAA

KSCR 181255Z AUTO 20006KT 10SM CLR 25/21 A3005 RMK AO2 T02500210


Station Type Date Time Source
KSCR Decoded METAR 2019/06/18 12:55 UTC NOAA

Station name not available
Jun 18, 2019 - 08:55 AM EDT / 2019.06.18 1255 UTC
Wind: from the SSW (200 degrees) at 7 MPH (6 KT):0
Visibility: 10 mile(s):0
Sky conditions: clear
Temperature: 77.0 F (25.0 C)
Dew Point: 69.8 F (21.0 C)
Relative Humidity: 78%
Pressure (altimeter): 30.05 in. Hg (1017 hPa)
ob: KSCR 181255Z AUTO 20006KT 10SM CLR 25/21 A3005 RMK AO2 T02500210
cycle: 13

Station Type Date Time Source
KSCR TAF UTC NOAA

Error!

Example: see airport list